Carson City, Michigan
Current Conditions -  °F | °C
As of 10:13 AM on Thursday 23 Oct 2014 (Local Time) from KAMN Reporting Station
Haze Haze  
Wind Chill: 37°   Ceiling: 100
Heat Index: 37°   Visibility: 3mi
Dew Point: 37°   Wind: 0mph
Humidity: 99%   Direction: NA
Pressure: 30.25"   Gusts: NA
Location:  43.18°N, 84.85°W
Report Text: KAMN 231413Z AUTO 00000KT 3SM BR BKN001 OVC013 03/03 A3025 RMK AO2 T00260025
Loading
Personal Weather Stations






























Interactive Weather Map New forecast layout! Learn more

10-Day Weather Forecast

Advertisements
Track Severe Weather on mobile